createdAt,value
2023-04-19T00:01:44.221Z,61.98
2023-04-19T00:04:11.627Z,59.68
2023-04-19T00:06:42.000Z,61.10
2023-04-19T00:09:09.808Z,59.54
2023-04-19T00:11:36.904Z,59.58
2023-04-19T00:14:03.998Z,59.28
2023-04-19T00:16:31.111Z,59.48
2023-04-19T00:18:58.206Z,59.23
2023-04-19T00:21:26.176Z,59.76
2023-04-19T00:23:54.091Z,59.19
2023-04-19T00:26:23.510Z,60.11
2023-04-19T00:28:50.524Z,60.07
2023-04-19T00:31:17.681Z,60.04
2023-04-19T00:33:44.710Z,60.89
2023-04-19T00:36:11.817Z,60.35
2023-04-19T00:38:38.843Z,60.46
2023-04-19T00:41:05.994Z,60.10
2023-04-19T00:43:33.141Z,60.08
2023-04-19T00:46:00.543Z,59.98
2023-04-19T00:48:27.752Z,59.36
2023-04-19T00:50:55.137Z,60.67
2023-04-19T00:53:22.258Z,60.59
2023-04-19T00:55:51.356Z,61.53
2023-04-19T00:58:18.945Z,60.18
2023-04-19T01:00:46.116Z,60.78
2023-04-19T01:03:13.551Z,61.98
2023-04-19T01:05:41.621Z,61.57
2023-04-19T01:08:08.707Z,59.78
2023-04-19T01:10:36.032Z,60.23
2023-04-19T01:13:03.168Z,60.88
2023-04-19T01:15:31.393Z,61.27
2023-04-19T01:17:58.569Z,61.01
2023-04-19T01:20:25.781Z,62.63
2023-04-19T01:22:52.902Z,60.66
2023-04-19T01:25:20.145Z,60.40
2023-04-19T01:27:47.172Z,60.77
2023-04-19T01:30:14.509Z,61.28
2023-04-19T01:32:41.583Z,62.08
2023-04-19T01:35:11.293Z,61.74
2023-04-19T01:37:38.504Z,61.71
2023-04-19T01:40:06.521Z,62.23
2023-04-19T01:42:33.646Z,62.72
2023-04-19T01:45:00.802Z,62.41
2023-04-19T01:47:28.027Z,62.14
2023-04-19T01:49:55.299Z,61.83
2023-04-19T01:52:22.406Z,62.88
2023-04-19T01:54:49.458Z,62.54
2023-04-19T01:57:16.681Z,62.95
2023-04-19T01:59:43.787Z,62.26
2023-04-19T02:02:10.963Z,63.26
2023-04-19T02:04:38.123Z,62.32
2023-04-19T02:07:05.242Z,61.77
2023-04-19T02:09:37.009Z,62.85
2023-04-19T02:12:05.790Z,62.77
2023-04-19T02:14:32.976Z,61.84
2023-04-19T02:17:00.030Z,62.59
2023-04-19T02:19:27.100Z,63.24
2023-04-19T02:21:57.520Z,63.23
2023-04-19T02:24:25.305Z,61.81
2023-04-19T02:26:54.596Z,62.73
2023-04-19T02:29:21.942Z,62.34
2023-04-19T02:31:49.064Z,62.82
2023-04-19T02:34:16.468Z,64.25
2023-04-19T02:36:43.848Z,63.53
2023-04-19T02:39:10.903Z,64.72
2023-04-19T02:41:39.499Z,64.65
2023-04-19T02:44:06.647Z,63.79
2023-04-19T02:46:33.796Z,64.33
2023-04-19T02:49:04.405Z,62.20
2023-04-19T02:51:31.518Z,63.98
2023-04-19T02:53:58.554Z,63.26
2023-04-19T02:56:26.064Z,63.65
2023-04-19T02:58:54.714Z,62.74
2023-04-19T03:01:22.023Z,63.72
2023-04-19T03:03:49.221Z,65.00
2023-04-19T03:06:16.937Z,66.35
2023-04-19T03:08:44.095Z,67.16
2023-04-19T03:11:12.871Z,66.83
2023-04-19T03:13:40.722Z,66.73
2023-04-19T03:16:09.158Z,66.41
2023-04-19T03:18:36.489Z,65.71
2023-04-19T03:21:09.384Z,66.35
2023-04-19T03:23:37.628Z,66.97
2023-04-19T03:26:04.713Z,66.84
2023-04-19T03:28:31.796Z,66.64
2023-04-19T03:30:58.793Z,67.14
2023-04-19T03:33:25.909Z,67.69
2023-04-19T03:35:52.939Z,66.93
2023-04-19T03:38:20.032Z,68.69
2023-04-19T03:40:48.250Z,69.66
2023-04-19T03:43:15.422Z,67.60
2023-04-19T03:45:42.514Z,68.76
2023-04-19T03:48:09.641Z,69.67
2023-04-19T03:50:36.730Z,70.04
2023-04-19T03:53:07.328Z,70.55
2023-04-19T03:55:34.421Z,71.20
2023-04-19T03:58:01.658Z,70.99
2023-04-19T04:00:28.725Z,70.54
2023-04-19T04:02:57.594Z,73.27
2023-04-19T04:05:28.005Z,73.00
2023-04-19T04:07:56.312Z,72.61
2023-04-19T04:10:23.371Z,72.72
2023-04-19T04:12:50.472Z,70.80
2023-04-19T04:15:17.690Z,72.11
2023-04-19T04:17:45.106Z,71.45
2023-04-19T04:20:13.513Z,72.27
2023-04-19T04:22:43.283Z,72.73
2023-04-19T04:25:10.968Z,71.45
2023-04-19T04:27:39.793Z,72.02
2023-04-19T04:30:08.046Z,72.75
2023-04-19T04:32:37.434Z,72.56
2023-04-19T04:35:07.166Z,73.63
2023-04-19T04:37:40.431Z,73.98
2023-04-19T04:40:08.952Z,73.06
2023-04-19T04:42:39.086Z,74.57
2023-04-19T04:45:07.295Z,73.72
2023-04-19T04:47:35.325Z,73.94
2023-04-19T04:50:04.194Z,74.62
2023-04-19T04:52:31.360Z,72.17
2023-04-19T04:54:58.663Z,73.79
2023-04-19T04:57:28.735Z,71.20
2023-04-19T04:59:56.397Z,71.56
2023-04-19T05:02:24.010Z,72.37
2023-04-19T05:04:51.286Z,73.00
2023-04-19T05:07:18.414Z,71.31
2023-04-19T05:09:49.044Z,72.12
2023-04-19T05:12:16.190Z,71.88
2023-04-19T05:14:43.282Z,71.25
2023-04-19T05:17:10.508Z,71.94
2023-04-19T05:19:40.902Z,73.44
2023-04-19T05:22:07.946Z,70.66
2023-04-19T05:24:35.292Z,72.42
2023-04-19T05:27:05.047Z,71.86
2023-04-19T05:29:32.516Z,70.75
2023-04-19T05:31:59.727Z,72.47
2023-04-19T05:34:26.933Z,68.71
2023-04-19T05:36:54.167Z,69.31
2023-04-19T05:39:21.202Z,69.96
2023-04-19T05:41:48.633Z,68.68
2023-04-19T05:44:15.920Z,70.13
2023-04-19T05:46:43.150Z,69.11
2023-04-19T05:49:10.171Z,67.39
2023-04-19T05:51:37.248Z,67.43
2023-04-19T05:54:04.426Z,68.87
2023-04-19T05:56:31.764Z,67.30
2023-04-19T05:59:00.963Z,66.98
2023-04-19T06:01:28.402Z,67.69
2023-04-19T06:03:55.645Z,67.29
2023-04-19T06:06:23.843Z,64.13
2023-04-19T06:08:53.328Z,65.32
2023-04-19T06:11:31.511Z,66.04
2023-04-19T06:14:02.167Z,64.50
2023-04-19T06:16:29.834Z,65.71
2023-04-19T06:18:57.407Z,62.16
2023-04-19T06:21:24.532Z,61.16
2023-04-19T06:23:52.165Z,62.90
2023-04-19T06:26:19.395Z,61.59
2023-04-19T06:28:49.349Z,62.37
2023-04-19T06:31:16.528Z,59.26
2023-04-19T06:33:43.876Z,58.10
2023-04-19T06:36:10.944Z,61.48
2023-04-19T06:38:47.464Z,58.69
2023-04-19T06:41:14.487Z,61.53
2023-04-19T06:43:42.776Z,59.72
2023-04-19T06:46:10.110Z,57.67
2023-04-19T06:48:38.023Z,57.24
2023-04-19T06:51:05.299Z,58.50
2023-04-19T06:53:33.244Z,58.54
2023-04-19T06:56:04.428Z,59.33
2023-04-19T06:58:34.513Z,54.72
2023-04-19T07:01:04.542Z,54.03
2023-04-19T07:03:33.782Z,52.87
2023-04-19T07:06:01.353Z,55.37
2023-04-19T07:08:42.310Z,56.02
2023-04-19T07:11:15.672Z,54.22
2023-04-19T07:13:46.622Z,54.50
2023-04-19T07:16:14.932Z,53.42
2023-04-19T07:18:42.325Z,54.47
2023-04-19T07:21:10.307Z,51.10
2023-04-19T07:24:06.222Z,53.76
2023-04-19T07:26:45.114Z,50.94
2023-04-19T07:29:15.233Z,53.60
2023-04-19T07:31:42.533Z,52.25
2023-04-19T07:34:09.961Z,53.63
2023-04-19T07:36:38.014Z,51.49
2023-04-19T07:39:05.364Z,51.00
2023-04-19T07:41:33.082Z,49.26
2023-04-19T07:44:02.870Z,49.53
2023-04-19T07:46:30.125Z,46.46
2023-04-19T07:48:57.248Z,49.74
2023-04-19T07:51:25.114Z,49.83
2023-04-19T07:53:55.402Z,48.17
2023-04-19T07:56:23.343Z,46.72
2023-04-19T07:59:04.218Z,48.38
2023-04-19T08:01:35.250Z,47.34
2023-04-19T08:04:06.977Z,48.45
2023-04-19T08:06:34.535Z,46.75
2023-04-19T08:09:01.603Z,50.63
2023-04-19T08:11:28.794Z,50.04
2023-04-19T08:14:06.805Z,50.82
2023-04-19T08:17:19.576Z,49.07
2023-04-19T08:19:31.044Z,49.71
2023-04-19T08:21:58.099Z,50.62
2023-04-19T08:24:25.292Z,49.18
2023-04-19T08:26:57.088Z,49.76
2023-04-19T08:29:28.711Z,50.12
2023-04-19T08:31:57.285Z,49.94
2023-04-19T08:34:24.370Z,50.87
2023-04-19T08:37:03.238Z,50.16
2023-04-19T08:39:37.720Z,49.54
2023-04-19T08:42:21.138Z,48.39
2023-04-19T08:47:44.974Z,49.89
2023-04-19T08:50:31.078Z,48.22
2023-04-19T08:55:33.624Z,44.86
2023-04-19T08:58:09.662Z,45.28
2023-04-19T09:00:43.041Z,45.40
2023-04-19T09:03:11.300Z,44.47
2023-04-19T09:05:38.885Z,47.14
2023-04-19T09:08:28.650Z,44.50
2023-04-19T09:11:02.652Z,46.21
2023-04-19T09:13:30.364Z,44.91
2023-04-19T09:16:00.216Z,42.37
2023-04-19T09:18:33.130Z,45.20
2023-04-19T09:21:01.637Z,46.68
2023-04-19T09:23:29.219Z,46.01
2023-04-19T09:28:36.427Z,46.01
2023-04-19T09:31:33.210Z,43.65
2023-04-19T09:34:19.284Z,45.60
2023-04-19T09:36:54.637Z,47.15
2023-04-19T09:39:37.859Z,46.78
2023-04-19T09:42:05.122Z,45.00
2023-04-19T09:45:12.609Z,43.74
2023-04-19T09:47:29.845Z,44.94
2023-04-19T09:50:22.630Z,47.21
2023-04-19T09:52:53.039Z,44.00
2023-04-19T09:55:27.593Z,44.95
2023-04-19T09:57:55.739Z,45.17
2023-04-19T10:00:23.617Z,44.99
2023-04-19T10:02:58.000Z,42.27
2023-04-19T10:05:26.410Z,44.61
2023-04-19T10:07:59.529Z,43.07
2023-04-19T10:13:25.975Z,41.92
2023-04-19T10:16:01.814Z,44.75
2023-04-19T10:18:35.940Z,43.11
2023-04-19T10:21:08.328Z,43.10
2023-04-19T10:23:38.711Z,42.47
2023-04-19T10:26:07.262Z,44.28
2023-04-19T10:28:37.193Z,44.45
2023-04-19T10:31:05.768Z,43.25
2023-04-19T10:33:37.866Z,44.22
2023-04-19T10:36:11.164Z,40.22
2023-04-19T10:38:49.457Z,44.86
2023-04-19T10:41:23.737Z,44.22
2023-04-19T10:43:57.656Z,42.77
2023-04-19T10:46:25.866Z,43.98
2023-04-19T10:49:09.545Z,43.43
2023-04-19T10:51:42.368Z,43.78
2023-04-19T10:54:33.180Z,42.37
2023-04-19T10:57:10.182Z,42.41
2023-04-19T10:59:42.975Z,45.38
2023-04-19T11:02:22.448Z,44.82
2023-04-19T11:04:49.626Z,43.11
2023-04-19T11:07:24.002Z,45.44
2023-04-19T11:09:52.467Z,43.75
2023-04-19T11:12:24.065Z,42.67
2023-04-19T11:14:59.678Z,43.72
2023-04-19T11:17:32.504Z,42.02
2023-04-19T11:20:12.008Z,43.62
2023-04-19T11:22:47.214Z,40.90
2023-04-19T11:25:22.760Z,44.26
2023-04-19T11:27:54.001Z,43.50
2023-04-19T11:30:31.236Z,41.86
2023-04-19T11:32:58.818Z,45.06
2023-04-19T11:35:29.042Z,42.80
2023-04-19T11:38:08.004Z,40.75
2023-04-19T11:40:37.391Z,43.89
2023-04-19T11:43:05.525Z,42.97
2023-04-19T11:45:39.804Z,42.91
2023-04-19T11:48:17.242Z,42.50
2023-04-19T11:50:49.408Z,42.10
2023-04-19T11:53:25.447Z,44.17
2023-04-19T11:56:08.240Z,43.35
2023-04-19T11:58:50.114Z,43.50
2023-04-19T12:01:20.705Z,42.94
2023-04-19T12:03:51.275Z,43.76
2023-04-19T12:06:30.706Z,43.31
2023-04-19T12:09:47.949Z,40.46
2023-04-19T12:12:31.305Z,42.41
2023-04-19T12:14:58.578Z,43.91
2023-04-19T12:17:35.360Z,42.36
2023-04-19T12:20:08.436Z,41.91
2023-04-19T12:22:36.154Z,42.79
2023-04-19T12:25:03.267Z,42.36
2023-04-19T12:27:30.414Z,42.33
2023-04-19T12:29:57.828Z,41.46
2023-04-19T12:32:25.024Z,43.03
2023-04-19T12:35:04.386Z,43.08
2023-04-19T12:37:31.691Z,40.48
2023-04-19T12:39:58.819Z,43.09
2023-04-19T12:42:28.272Z,40.09
2023-04-19T12:47:43.535Z,40.59
2023-04-19T12:50:16.166Z,39.08
2023-04-19T12:52:58.838Z,41.18
2023-04-19T12:55:35.378Z,39.83
2023-04-19T12:58:15.038Z,39.82
2023-04-19T13:00:43.547Z,38.98
2023-04-19T13:03:14.033Z,39.28
2023-04-19T13:05:41.655Z,37.51
2023-04-19T13:08:08.840Z,39.20
2023-04-19T13:10:36.178Z,37.46
2023-04-19T13:13:05.676Z,39.23
2023-04-19T13:15:32.788Z,39.97
2023-04-19T13:17:59.922Z,37.61
2023-04-19T13:20:27.136Z,39.16
2023-04-19T13:22:54.194Z,37.77
2023-04-19T13:25:27.731Z,37.51
2023-04-19T13:27:54.938Z,41.33
2023-04-19T13:30:22.010Z,40.45
2023-04-19T13:32:49.082Z,40.30
2023-04-19T13:35:16.681Z,38.59
2023-04-19T13:37:47.565Z,42.15
2023-04-19T13:40:22.040Z,40.72
2023-04-19T13:42:49.177Z,41.93
2023-04-19T13:45:16.276Z,40.01
2023-04-19T13:47:43.863Z,42.54
2023-04-19T13:50:11.186Z,41.23
2023-04-19T13:52:38.272Z,42.11
2023-04-19T13:55:05.809Z,41.97
2023-04-19T13:57:32.859Z,41.51
2023-04-19T13:59:59.937Z,41.62
2023-04-19T14:02:28.616Z,41.46
2023-04-19T14:04:58.805Z,41.07
2023-04-19T14:07:25.881Z,41.46
2023-04-19T14:09:53.008Z,41.18
2023-04-19T14:12:20.558Z,40.18
2023-04-19T14:14:47.991Z,42.00
2023-04-19T14:17:15.041Z,40.08
2023-04-19T14:19:42.235Z,42.64
2023-04-19T14:22:09.505Z,42.70
2023-04-19T14:24:36.567Z,43.55
2023-04-19T14:27:10.812Z,44.07
2023-04-19T14:29:39.778Z,44.85
2023-04-19T14:32:23.627Z,44.91
2023-04-19T14:34:53.924Z,44.70
2023-04-19T14:37:24.183Z,45.56
2023-04-19T14:39:51.733Z,46.22
2023-04-19T14:42:22.316Z,46.35
2023-04-19T14:44:54.047Z,45.57
2023-04-19T14:47:21.907Z,48.35
2023-04-19T14:49:49.077Z,50.23
2023-04-19T14:52:19.599Z,52.07
2023-04-19T14:54:46.858Z,53.52
2023-04-19T14:57:14.824Z,55.84
2023-04-19T14:59:44.548Z,55.26
2023-04-19T15:02:13.622Z,57.39
2023-04-19T15:04:42.005Z,59.41
2023-04-19T15:07:09.474Z,61.28
2023-04-19T15:09:36.634Z,66.78
2023-04-19T15:12:03.900Z,70.60
2023-04-19T15:14:30.937Z,69.46
2023-04-19T15:16:58.024Z,71.55
2023-04-19T15:19:25.188Z,69.07
2023-04-19T15:21:52.230Z,70.89
2023-04-19T15:24:19.332Z,70.50
2023-04-19T15:26:46.445Z,70.78
2023-04-19T15:29:16.654Z,70.67
2023-04-19T15:31:44.002Z,69.87
2023-04-19T15:34:11.122Z,70.66
2023-04-19T15:36:38.571Z,70.14
2023-04-19T15:39:05.918Z,71.31
2023-04-19T15:41:33.028Z,72.15
2023-04-19T15:44:00.077Z,71.60
2023-04-19T15:46:27.385Z,73.14
2023-04-19T15:48:54.702Z,72.40
2023-04-19T15:51:21.872Z,68.67
2023-04-19T15:53:49.014Z,72.46
2023-04-19T15:56:16.261Z,72.25
2023-04-19T15:58:43.401Z,72.11
2023-04-19T16:01:14.284Z,74.68
2023-04-19T16:03:42.654Z,73.65
2023-04-19T16:06:10.493Z,73.70
2023-04-19T16:08:37.645Z,71.37
2023-04-19T16:11:06.027Z,71.94
2023-04-19T16:13:35.703Z,72.96
2023-04-19T16:16:02.871Z,71.56
2023-04-19T16:18:30.109Z,70.40
2023-04-19T16:20:57.303Z,72.20
2023-04-19T16:23:25.484Z,72.57
2023-04-19T16:25:53.789Z,70.13
2023-04-19T16:28:24.930Z,72.89
2023-04-19T16:30:52.191Z,73.79
2023-04-19T16:33:19.457Z,74.90
2023-04-19T16:35:46.670Z,72.61
2023-04-19T16:38:14.156Z,76.51
2023-04-19T16:40:41.478Z,75.73
2023-04-19T16:43:08.607Z,76.26
2023-04-19T16:45:35.813Z,77.44
2023-04-19T16:48:03.096Z,76.45
2023-04-19T16:50:30.314Z,76.70
2023-04-19T16:52:57.409Z,75.74
2023-04-19T16:55:24.445Z,77.17
2023-04-19T16:57:53.581Z,77.60
2023-04-19T17:00:21.264Z,75.56
2023-04-19T17:02:54.828Z,78.04
2023-04-19T17:05:22.085Z,78.42
2023-04-19T17:07:51.731Z,78.10
2023-04-19T17:10:18.957Z,77.55
2023-04-19T17:12:46.104Z,77.96
2023-04-19T17:15:13.211Z,79.07
2023-04-19T17:17:40.986Z,79.35
2023-04-19T17:20:09.417Z,79.65
2023-04-19T17:22:36.576Z,79.53
2023-04-19T17:25:03.896Z,80.33
2023-04-19T17:27:31.618Z,79.76
2023-04-19T17:29:58.706Z,80.90
2023-04-19T17:32:27.018Z,81.65
2023-04-19T17:34:54.255Z,80.83
2023-04-19T17:37:21.771Z,80.90
2023-04-19T17:39:49.097Z,80.82
2023-04-19T17:42:16.182Z,81.25
2023-04-19T17:44:43.318Z,79.18
2023-04-19T17:47:13.004Z,81.69
2023-04-19T17:49:40.712Z,81.72
2023-04-19T17:52:09.860Z,80.56
2023-04-19T17:54:37.214Z,79.07
2023-04-19T17:57:05.558Z,79.29
2023-04-19T17:59:35.556Z,79.35
2023-04-19T18:02:02.815Z,79.64
2023-04-19T18:04:31.017Z,80.46
2023-04-19T18:07:02.126Z,80.83
2023-04-19T18:09:31.030Z,80.63
2023-04-19T18:11:58.398Z,80.43
2023-04-19T18:14:25.614Z,79.17
2023-04-19T18:16:54.728Z,81.10
2023-04-19T18:19:23.955Z,81.57
2023-04-19T18:25:01.627Z,81.12
2023-04-19T18:27:30.977Z,81.65
2023-04-19T18:29:59.416Z,80.72
2023-04-19T18:32:28.646Z,81.52
2023-04-19T18:34:56.122Z,81.32
2023-04-19T18:37:23.208Z,80.84
2023-04-19T18:39:50.401Z,81.39
2023-04-19T18:42:20.672Z,82.14
2023-04-19T18:47:17.748Z,81.71
2023-04-19T18:49:52.892Z,81.58
2023-04-19T18:52:30.259Z,81.39
2023-04-19T18:54:58.385Z,82.48
2023-04-19T18:57:27.503Z,81.05
2023-04-19T18:59:56.883Z,81.38
2023-04-19T19:02:24.541Z,82.63
2023-04-19T19:04:57.761Z,81.71
2023-04-19T19:07:35.724Z,82.89
2023-04-19T19:10:18.329Z,81.93
2023-04-19T19:12:48.134Z,82.02
2023-04-19T19:15:15.610Z,82.79
2023-04-19T19:17:43.597Z,82.75
2023-04-19T19:20:13.654Z,83.31
2023-04-19T19:22:40.812Z,81.99
2023-04-19T19:25:08.515Z,81.74
2023-04-19T19:27:35.729Z,82.08
2023-04-19T19:30:03.606Z,80.55
2023-04-19T19:32:31.593Z,81.00
2023-04-19T19:35:02.234Z,81.34
2023-04-19T19:37:30.385Z,82.71
2023-04-19T19:39:57.483Z,83.06
2023-04-19T19:42:25.574Z,82.11
2023-04-19T19:44:56.422Z,83.08
2023-04-19T19:47:27.288Z,83.06
2023-04-19T19:50:45.701Z,82.14
2023-04-19T19:52:42.271Z,81.84
2023-04-19T19:55:12.379Z,83.54
2023-04-19T20:00:36.837Z,81.82
2023-04-19T20:03:01.616Z,81.72
2023-04-19T20:05:29.515Z,84.19
2023-04-19T20:08:29.174Z,84.41
2023-04-19T20:10:56.625Z,84.06
2023-04-19T20:13:23.851Z,82.32
2023-04-19T20:15:52.679Z,84.44
2023-04-19T20:18:19.828Z,84.54
2023-04-19T20:20:46.943Z,82.68
2023-04-19T20:23:23.741Z,82.62
2023-04-19T20:25:51.955Z,83.22
2023-04-19T20:28:19.254Z,83.04
2023-04-19T20:30:46.675Z,83.23
2023-04-19T20:33:13.978Z,84.38
2023-04-19T20:35:42.048Z,82.55
2023-04-19T20:38:09.656Z,81.89
2023-04-19T20:40:37.085Z,83.69
2023-04-19T20:43:04.127Z,83.33
2023-04-19T20:45:31.344Z,82.96
2023-04-19T20:47:59.610Z,83.03
2023-04-19T20:50:32.239Z,82.76
2023-04-19T20:53:08.144Z,83.47
2023-04-19T20:55:35.658Z,83.01
2023-04-19T20:58:06.397Z,83.53
2023-04-19T21:00:33.485Z,82.08
2023-04-19T21:03:00.678Z,83.00
2023-04-19T21:05:27.912Z,83.16
2023-04-19T21:07:55.206Z,83.82
2023-04-19T21:10:22.417Z,83.40
2023-04-19T21:12:49.711Z,83.06
2023-04-19T21:15:17.096Z,82.63
2023-04-19T21:17:44.362Z,83.14
2023-04-19T21:20:13.933Z,83.64
2023-04-19T21:22:46.833Z,82.34
2023-04-19T21:25:14.403Z,83.49
2023-04-19T21:27:45.033Z,83.24
2023-04-19T21:30:13.722Z,83.22
2023-04-19T21:32:40.872Z,83.59
2023-04-19T21:35:11.554Z,83.76
2023-04-19T21:37:38.759Z,84.16
2023-04-19T21:40:07.462Z,83.92
2023-04-19T21:42:37.489Z,82.78
2023-04-19T21:45:05.766Z,82.85
2023-04-19T21:47:32.916Z,83.18
2023-04-19T21:50:00.188Z,82.63
2023-04-19T21:52:27.337Z,82.75
2023-04-19T21:54:57.574Z,83.26
2023-04-19T21:57:26.896Z,84.03
2023-04-19T21:59:54.357Z,83.66
2023-04-19T22:02:27.465Z,81.96
2023-04-19T22:04:54.627Z,83.59
2023-04-19T22:07:23.810Z,82.70
2023-04-19T22:09:51.153Z,81.65
2023-04-19T22:12:18.787Z,81.67
2023-04-19T22:14:46.043Z,82.03
2023-04-19T22:17:14.215Z,81.16
2023-04-19T22:19:41.261Z,83.25
2023-04-19T22:22:08.439Z,82.01
2023-04-19T22:24:46.744Z,81.45
2023-04-19T22:27:24.324Z,81.71
2023-04-19T22:29:51.435Z,82.06
2023-04-19T22:32:18.765Z,80.82
2023-04-19T22:34:45.853Z,82.31
2023-04-19T22:37:12.904Z,82.34
2023-04-19T22:39:42.655Z,80.79
2023-04-19T22:42:09.732Z,81.02
2023-04-19T22:44:36.751Z,81.13
2023-04-19T22:47:04.874Z,81.15
2023-04-19T22:49:32.939Z,81.42
2023-04-19T22:52:00.185Z,81.21
2023-04-19T22:54:27.402Z,82.34
2023-04-19T22:56:54.527Z,80.66
2023-04-19T22:59:21.636Z,82.54
2023-04-19T23:01:48.719Z,81.81
2023-04-19T23:04:16.311Z,82.62
2023-04-19T23:06:44.437Z,82.18
2023-04-19T23:09:13.750Z,81.78
2023-04-19T23:11:42.275Z,81.95
2023-04-19T23:14:10.414Z,81.97
2023-04-19T23:16:41.336Z,80.33
2023-04-19T23:19:09.570Z,80.67
2023-04-19T23:21:37.249Z,82.51
2023-04-19T23:24:07.270Z,82.22
2023-04-19T23:26:34.407Z,80.98
2023-04-19T23:29:01.472Z,81.70
2023-04-19T23:31:28.642Z,82.95
2023-04-19T23:33:58.076Z,81.61
2023-04-19T23:36:26.433Z,82.30
2023-04-19T23:38:53.458Z,81.99
2023-04-19T23:41:20.771Z,81.76
2023-04-19T23:43:47.849Z,81.07
2023-04-19T23:46:14.927Z,81.36
2023-04-19T23:48:42.014Z,81.23
2023-04-19T23:51:09.066Z,81.89
2023-04-19T23:53:36.355Z,83.38
2023-04-19T23:56:03.498Z,83.45
2023-04-19T23:58:30.827Z,81.23
